Time;durP1;ratioP1;P1;durP2;ratioP2;P2;SDS_P1;SDS_P2;PMS_P1;PMS_P2;Temp;Humidity;BMP_temperature;BMP_pressure;BME280_temperature;BME280_humidity;BME280_pressure;Samples;Min_cycle;Max_cycle;Signal;HPM_P1;HPM_P2
2021/09/22 00:01:53;;;;;;;23.67;16.58;;;;;;;12.03;83.80;103124.41;5064773;28;20040;-60
2021/09/22 00:04:19;;;;;;;23.83;16.38;;;;;;;12.02;83.57;103129.63;5065866;28;20143;-60
2021/09/22 00:06:44;;;;;;;23.45;15.82;;;;;;;12.01;83.68;103122.59;5065274;28;20037;-61
2021/09/22 00:09:09;;;;;;;23.08;16.27;;;;;;;11.97;83.31;103129.50;5064523;28;20037;-61
2021/09/22 00:11:35;;;;;;;24.17;16.77;;;;;;;11.94;83.46;103131.16;5063833;28;20025;-61
2021/09/22 00:14:00;;;;;;;25.20;17.40;;;;;;;11.90;83.74;103130.16;5097013;28;20116;-61
2021/09/22 00:16:25;;;;;;;25.80;18.30;;;;;;;11.89;84.13;103125.72;5064971;28;20060;-61
2021/09/22 00:18:51;;;;;;;28.27;17.85;;;;;;;11.87;84.28;103130.03;5065403;28;20048;-61
2021/09/22 00:21:16;;;;;;;25.05;17.40;;;;;;;11.86;83.99;103125.63;5064963;28;20048;-61
2021/09/22 00:23:42;;;;;;;26.98;18.08;;;;;;;11.87;83.91;103125.69;5064301;28;20037;-61
2021/09/22 00:26:07;;;;;;;26.27;17.33;;;;;;;11.85;83.96;103127.38;5064990;28;20071;-60
2021/09/22 00:28:32;;;;;;;23.75;17.23;;;;;;;11.84;84.08;103129.97;5064405;28;20029;-61
2021/09/22 00:30:58;;;;;;;27.92;17.52;;;;;;;11.84;84.08;103128.22;5063456;28;20029;-60
2021/09/22 00:33:23;;;;;;;26.08;17.77;;;;;;;11.83;84.08;103125.53;5064675;28;20028;-60
2021/09/22 00:35:49;;;;;;;26.90;18.40;;;;;;;11.80;84.33;103122.81;5064700;28;20057;-60
2021/09/22 00:38:14;;;;;;;26.20;18.02;;;;;;;11.78;83.99;103122.75;5065131;28;20029;-60
2021/09/22 00:40:40;;;;;;;28.52;18.55;;;;;;;11.74;83.96;103113.00;5061572;28;20031;-61
2021/09/22 00:43:05;;;;;;;29.33;19.55;;;;;;;11.74;84.25;103114.72;5060800;28;20029;-61
2021/09/22 00:45:30;;;;;;;29.30;19.05;;;;;;;11.73;84.32;103118.22;5060641;28;21510;-62
2021/09/22 00:47:56;;;;;;;29.92;18.55;;;;;;;11.74;84.31;103119.97;5063628;28;20040;-61
2021/09/22 00:50:22;;;;;;;26.65;18.63;;;;;;;11.74;84.53;103115.63;5064584;28;20096;-61
2021/09/22 00:52:47;;;;;;;28.27;18.38;;;;;;;11.74;84.23;103106.81;5064004;28;20021;-60
2021/09/22 00:55:14;;;;;;;29.73;19.15;;;;;;;11.75;84.19;103111.25;5064089;28;20037;-61
2021/09/22 00:57:51;;;;;;;27.77;19.00;;;;;;;11.73;84.07;103119.09;5060491;28;20115;-61
2021/09/22 01:00:18;;;;;;;30.42;19.42;;;;;;;11.75;84.17;103125.28;5061498;28;20025;-61
2021/09/22 01:02:47;;;;;;;28.92;19.58;;;;;;;11.74;84.04;103122.63;5064759;28;20032;-61
2021/09/22 01:05:18;;;;;;;28.95;19.00;;;;;;;11.73;83.85;103123.47;5063722;28;20029;-61
2021/09/22 01:07:44;;;;;;;31.00;19.58;;;;;;;11.68;84.19;103124.25;5059054;28;20086;-61
2021/09/22 01:10:10;;;;;;;30.50;19.85;;;;;;;11.68;84.33;103118.06;5061245;28;20051;-61
2021/09/22 01:12:36;;;;;;;32.38;20.98;;;;;;;11.65;84.14;103115.34;5062894;28;20031;-61
2021/09/22 01:15:01;;;;;;;29.27;19.75;;;;;;;11.64;84.21;103110.91;5064171;28;20052;-61
2021/09/22 01:17:27;;;;;;;31.02;20.58;;;;;;;11.62;84.53;103104.72;5063764;28;20033;-61
2021/09/22 01:19:54;;;;;;;32.70;20.90;;;;;;;11.61;84.55;103105.56;5063985;28;20036;-61
2021/09/22 01:22:19;;;;;;;28.33;19.08;;;;;;;11.60;84.48;103096.75;5063486;28;20033;-60
2021/09/22 01:24:45;;;;;;;32.33;19.75;;;;;;;11.59;84.27;103104.63;5063459;28;20072;-60
2021/09/22 01:27:10;;;;;;;29.55;19.98;;;;;;;11.57;84.51;103107.22;5063738;28;20111;-60
2021/09/22 01:29:37;;;;;;;31.48;19.75;;;;;;;11.55;84.61;103110.63;5063180;28;20028;-61
2021/09/22 01:32:03;;;;;;;30.25;19.05;;;;;;;11.52;84.44;103109.69;5062977;28;20059;-60
2021/09/22 01:34:28;;;;;;;30.13;20.15;;;;;;;11.54;84.47;103106.22;5063253;28;20032;-60
2021/09/22 01:36:53;;;;;;;33.92;21.05;;;;;;;11.54;84.75;103108.84;5063399;28;20033;-61
2021/09/22 01:39:19;;;;;;;32.03;19.88;;;;;;;11.51;84.50;103104.38;5063958;28;20036;-61
2021/09/22 01:41:44;;;;;;;30.95;20.65;;;;;;;11.49;84.27;103112.25;5061997;28;20035;-60
2021/09/22 01:44:10;;;;;;;30.98;19.95;;;;;;;11.49;84.50;103103.44;5062751;28;20025;-61
2021/09/22 01:46:35;;;;;;;33.05;20.77;;;;;;;11.49;84.71;103101.72;5063213;28;20134;-61
2021/09/22 01:49:00;;;;;;;35.67;21.80;;;;;;;11.51;84.86;103101.75;5063562;28;20147;-62
2021/09/22 01:51:26;;;;;;;36.67;22.50;;;;;;;11.55;85.23;103101.00;5063590;28;20063;-61
2021/09/22 01:53:51;;;;;;;34.28;21.52;;;;;;;11.58;84.75;103100.19;5064641;28;20060;-61
2021/09/22 01:56:17;;;;;;;32.30;21.42;;;;;;;11.60;84.61;103109.03;5063135;28;20037;-62
2021/09/22 01:58:42;;;;;;;37.40;22.63;;;;;;;11.61;84.63;103105.56;5062893;28;20033;-61
2021/09/22 02:01:13;;;;;;;33.30;21.35;;;;;;;11.63;84.57;103109.16;5062036;28;20071;-61
2021/09/22 02:03:39;;;;;;;34.80;21.98;;;;;;;11.62;84.63;103105.59;5063153;28;20052;-60
2021/09/22 02:06:05;;;;;;;38.88;22.92;;;;;;;11.62;84.83;103109.97;5062913;28;20064;-61
2021/09/22 02:08:31;;;;;;;35.58;21.55;;;;;;;11.62;84.54;103112.59;5062677;28;20033;-60
2021/09/22 02:10:56;;;;;;;34.50;21.25;;;;;;;11.62;84.75;103109.97;5061076;28;20095;-61
2021/09/22 02:13:22;;;;;;;37.03;21.98;;;;;;;11.63;84.92;103102.13;5062494;28;20029;-60
2021/09/22 02:15:47;;;;;;;38.47;22.88;;;;;;;11.62;85.13;103089.78;5063567;28;20061;-61
2021/09/22 02:18:12;;;;;;;37.30;23.45;;;;;;;11.63;85.02;103082.81;5062837;28;20038;-61
2021/09/22 02:20:38;;;;;;;35.00;23.70;;;;;;;11.63;84.98;103081.06;5062853;28;20159;-61
2021/09/22 02:23:03;;;;;;;38.53;24.30;;;;;;;11.63;85.07;103078.44;5062324;28;20353;-60
2021/09/22 02:25:29;;;;;;;38.95;22.33;;;;;;;11.61;85.00;103077.50;5062596;28;20099;-60
2021/09/22 02:27:54;;;;;;;37.92;23.65;;;;;;;11.61;84.98;103076.59;5062148;28;20040;-60
2021/09/22 02:30:22;;;;;;;39.53;24.58;;;;;;;11.62;85.22;103079.25;5062521;28;20150;-60
2021/09/22 02:32:48;;;;;;;43.17;25.55;;;;;;;11.62;85.15;103081.00;5061882;28;20124;-61
2021/09/22 02:35:14;;;;;;;39.53;23.88;;;;;;;11.62;84.96;103076.63;5062677;28;20048;-60
2021/09/22 02:37:40;;;;;;;37.17;23.17;;;;;;;11.62;85.03;103076.63;5063300;28;20033;-61
2021/09/22 02:40:12;;;;;;;38.88;23.63;;;;;;;11.61;84.84;103080.13;5060784;28;20017;-61
2021/09/22 02:42:37;;;;;;;40.08;24.48;;;;;;;11.60;85.00;103073.06;5060605;28;20088;-60
2021/09/22 02:45:03;;;;;;;38.17;24.50;;;;;;;11.58;84.76;103073.88;5062729;28;20052;-60
2021/09/22 02:47:28;;;;;;;39.10;24.23;;;;;;;11.55;85.07;103071.13;5062311;28;20045;-60
2021/09/22 02:49:54;;;;;;;38.13;23.73;;;;;;;11.52;84.89;103072.84;5062957;28;20035;-61
2021/09/22 02:52:19;;;;;;;39.17;24.30;;;;;;;11.50;85.04;103074.53;5061686;28;20044;-60
2021/09/22 02:54:45;;;;;;;36.50;23.33;;;;;;;11.50;85.26;103073.66;5064435;28;20100;-62
2021/09/22 02:57:10;;;;;;;42.03;24.30;;;;;;;11.49;85.08;103079.75;5061868;28;20041;-60
2021/09/22 02:59:35;;;;;;;38.83;24.05;;;;;;;11.48;84.99;103068.31;5062297;28;20040;-60
2021/09/22 03:02:01;;;;;;;38.28;23.95;;;;;;;11.47;85.04;103063.00;5061416;28;20025;-61
2021/09/22 03:04:27;;;;;;;40.33;24.45;;;;;;;11.48;85.45;103065.69;5062206;28;20032;-61
2021/09/22 03:06:52;;;;;;;48.10;25.35;;;;;;;11.48;85.26;103063.06;5066025;28;20034;-61
2021/09/22 03:09:17;;;;;;;42.75;23.90;;;;;;;11.48;85.26;103065.69;5064798;28;20052;-61
2021/09/22 03:11:43;;;;;;;42.67;25.63;;;;;;;11.48;85.29;103060.44;5065376;28;20045;-61
2021/09/22 03:14:08;;;;;;;42.05;25.65;;;;;;;11.50;85.35;103056.09;5066126;28;20043;-60
2021/09/22 03:16:34;;;;;;;41.20;25.08;;;;;;;11.49;85.10;103053.41;5065727;28;20104;-60
2021/09/22 03:19:00;;;;;;;39.08;25.23;;;;;;;11.49;84.84;103056.06;5066677;28;20037;-61
2021/09/22 03:21:28;;;;;;;39.10;25.08;;;;;;;11.47;84.72;103055.13;5066182;28;20036;-59
2021/09/22 03:23:53;;;;;;;41.65;24.80;;;;;;;11.46;85.10;103053.34;5062861;28;20118;-61
2021/09/22 03:26:19;;;;;;;40.53;24.65;;;;;;;11.45;85.22;103049.78;5066572;28;20400;-60
2021/09/22 03:28:44;;;;;;;44.45;25.02;;;;;;;11.45;85.35;103049.78;5066828;28;20033;-61
2021/09/22 03:31:10;;;;;;;43.33;25.00;;;;;;;11.46;85.42;103042.81;5065290;28;20037;-59
2021/09/22 03:33:35;;;;;;;42.65;25.63;;;;;;;11.45;85.27;103043.66;5065288;28;20033;-60
2021/09/22 03:36:01;;;;;;;41.53;24.98;;;;;;;11.45;85.23;103048.91;5065385;28;20107;-61
2021/09/22 03:38:26;;;;;;;41.85;24.75;;;;;;;11.43;85.18;103047.97;5065844;28;20029;-61
2021/09/22 03:40:53;;;;;;;42.83;24.77;;;;;;;11.42;85.01;103040.94;5063903;28;20044;-61
2021/09/22 03:43:19;;;;;;;40.80;25.67;;;;;;;11.38;85.08;103042.59;5064900;28;20024;-61
2021/09/22 03:45:44;;;;;;;43.78;25.42;;;;;;;11.33;85.04;103031.03;5065574;28;20109;-60
2021/09/22 03:48:09;;;;;;;45.10;26.20;;;;;;;11.30;85.10;103031.84;5064930;28;20200;-60
2021/09/22 03:50:35;;;;;;;44.03;26.35;;;;;;;11.30;85.27;103029.19;5066111;28;20037;-60
2021/09/22 03:53:00;;;;;;;43.28;25.73;;;;;;;11.29;85.41;103031.78;5064389;28;20037;-61
2021/09/22 03:55:26;;;;;;;42.72;25.98;;;;;;;11.29;85.50;103031.78;5066472;28;20032;-60
2021/09/22 03:57:51;;;;;;;42.50;26.10;;;;;;;11.29;85.38;103029.16;5065684;28;20104;-62
2021/09/22 04:00:17;;;;;;;41.95;25.92;;;;;;;11.28;85.04;103035.25;5065275;28;20044;-61
2021/09/22 04:02:42;;;;;;;42.90;26.58;;;;;;;11.28;85.59;103035.25;5063923;28;20118;-60
2021/09/22 04:05:08;;;;;;;42.78;26.00;;;;;;;11.28;85.38;103033.50;5064955;28;20497;-60
2021/09/22 04:07:33;;;;;;;42.80;24.63;;;;;;;11.28;85.06;103027.34;5046985;28;20052;-60
2021/09/22 04:09:59;;;;;;;41.90;25.02;;;;;;;11.25;85.01;103029.91;5064671;28;20052;-60
2021/09/22 04:12:24;;;;;;;42.40;26.33;;;;;;;11.25;85.37;103038.69;5064656;28;20063;-61
2021/09/22 04:14:49;;;;;;;44.35;26.00;;;;;;;11.24;85.21;103036.88;5065889;28;20059;-60
2021/09/22 04:17:15;;;;;;;42.85;24.02;;;;;;;11.25;85.19;103037.81;5064552;28;20025;-60
2021/09/22 04:19:40;;;;;;;42.00;25.50;;;;;;;11.24;85.42;103036.88;5065373;28;20036;-61
2021/09/22 04:22:05;;;;;;;40.30;24.80;;;;;;;11.26;85.44;103036.94;5065166;28;20087;-60
2021/09/22 04:24:31;;;;;;;41.85;25.00;;;;;;;11.27;85.12;103034.34;5065012;28;20041;-59
2021/09/22 04:26:56;;;;;;;48.38;26.10;;;;;;;11.28;85.34;103032.59;5065359;28;20036;-61
2021/09/22 04:29:22;;;;;;;39.25;23.95;;;;;;;11.28;85.03;103035.25;5064499;28;20029;-60
2021/09/22 04:31:48;;;;;;;40.63;25.10;;;;;;;11.27;85.37;103029.09;5064284;28;20033;-61
2021/09/22 04:34:13;;;;;;;40.00;24.85;;;;;;;11.28;85.35;103035.25;5064640;28;20025;-61
2021/09/22 04:36:40;;;;;;;41.40;25.00;;;;;;;11.27;85.50;103034.34;5065187;28;20033;-60
2021/09/22 04:39:07;;;;;;;42.60;26.10;;;;;;;11.28;85.48;103035.25;5060904;28;20056;-61
2021/09/22 04:41:32;;;;;;;37.97;24.63;;;;;;;11.29;85.67;103034.41;5062867;28;20040;-61
2021/09/22 04:43:58;;;;;;;41.20;25.63;;;;;;;11.29;85.55;103048.44;5064143;28;20057;-60
2021/09/22 04:46:23;;;;;;;42.33;24.85;;;;;;;11.29;85.88;103037.94;5064583;28;20017;-61
2021/09/22 04:48:49;;;;;;;43.20;25.60;;;;;;;11.30;85.58;103036.19;5065013;28;20036;-62
2021/09/22 04:51:14;;;;;;;41.63;25.38;;;;;;;11.28;85.51;103032.59;5064904;28;20060;-61
2021/09/22 04:53:40;;;;;;;39.85;24.63;;;;;;;11.26;85.24;103039.56;5063738;28;20051;-61
2021/09/22 04:56:05;;;;;;;43.58;23.95;;;;;;;11.23;85.40;103045.66;5070306;28;20064;-60
2021/09/22 04:58:30;;;;;;;36.75;23.10;;;;;;;11.24;85.33;103042.16;5065754;28;20112;-60
2021/09/22 05:01:01;;;;;;;38.97;23.25;;;;;;;11.24;85.61;103039.50;5064156;28;20052;-61
2021/09/22 05:03:26;;;;;;;39.80;23.60;;;;;;;11.24;85.08;103039.50;5062970;28;20124;-61
2021/09/22 05:05:52;;;;;;;38.55;24.30;;;;;;;11.25;85.33;103049.22;5063488;28;20492;-61
2021/09/22 05:08:17;;;;;;;36.55;23.08;;;;;;;11.26;85.43;103053.59;5064162;28;20035;-61
2021/09/22 05:10:42;;;;;;;36.58;22.30;;;;;;;11.26;85.15;103056.25;5061810;28;20073;-60
2021/09/22 05:13:07;;;;;;;35.83;22.95;;;;;;;11.24;85.24;103052.69;5065658;28;20037;-60
2021/09/22 05:15:33;;;;;;;39.38;22.52;;;;;;;11.23;85.05;103063.19;5064176;28;20033;-60
2021/09/22 05:17:58;;;;;;;33.88;22.25;;;;;;;11.23;85.27;103052.66;5064046;28;20043;-61
2021/09/22 05:20:24;;;;;;;36.33;22.90;;;;;;;11.21;84.95;103060.50;5059437;28;20059;-60
2021/09/22 05:22:49;;;;;;;34.67;21.90;;;;;;;11.19;85.01;103051.66;5061509;28;20083;-59
2021/09/22 05:25:14;;;;;;;36.83;23.05;;;;;;;11.19;85.11;103048.13;5062609;28;20041;-60
2021/09/22 05:27:40;;;;;;;34.20;21.65;;;;;;;11.18;84.75;103052.50;5059940;28;20120;-60
2021/09/22 05:30:06;;;;;;;33.42;20.90;;;;;;;11.18;85.00;103048.97;5063186;28;20036;-59
2021/09/22 05:32:32;;;;;;;30.02;20.02;;;;;;;11.16;84.87;103051.56;5061339;28;20040;-60
2021/09/22 05:34:57;;;;;;;32.95;21.00;;;;;;;11.14;85.12;103047.97;5063948;28;20021;-60
2021/09/22 05:37:23;;;;;;;36.28;22.65;;;;;;;11.15;85.16;103049.75;5063814;28;20566;-60
2021/09/22 05:39:48;;;;;;;34.13;21.35;;;;;;;11.17;85.14;103045.47;5061405;28;20028;-65
2021/09/22 05:42:14;;;;;;;31.90;21.15;;;;;;;11.20;85.07;103045.53;5059864;28;20041;-70
2021/09/22 05:44:39;;;;;;;34.28;21.65;;;;;;;11.24;84.97;103046.53;5061971;28;20035;-69
2021/09/22 05:47:04;;;;;;;34.60;20.70;;;;;;;11.26;84.79;103040.44;5060652;28;20171;-69
2021/09/22 05:49:30;;;;;;;31.75;20.83;;;;;;;11.27;85.12;103047.50;5059849;28;20111;-68
2021/09/22 05:51:55;;;;;;;37.88;21.77;;;;;;;11.34;85.99;103045.94;5061526;28;20047;-54
2021/09/22 05:54:21;;;;;;;35.05;21.10;;;;;;;11.37;84.39;103056.59;5063599;28;20029;-62
2021/09/22 05:56:47;;;;;;;35.47;21.58;;;;;;;11.40;84.38;103050.50;5060326;28;20032;-62
2021/09/22 05:59:13;;;;;;;41.65;23.95;;;;;;;11.40;84.51;103051.41;5063673;28;20033;-63
2021/09/22 06:01:39;;;;;;;38.85;24.35;;;;;;;11.43;84.83;103055.88;5059824;28;20036;-58
2021/09/22 06:04:06;;;;;;;41.83;23.80;;;;;;;11.45;84.75;103057.69;5068065;28;20096;-60
2021/09/22 06:06:31;;;;;;;42.90;23.23;;;;;;;11.47;85.02;103060.38;5063094;28;20449;-60
2021/09/22 06:08:56;;;;;;;41.67;23.98;;;;;;;11.48;84.89;103059.53;5064430;28;20044;-60
2021/09/22 06:11:22;;;;;;;42.88;25.80;;;;;;;11.52;84.85;103064.06;5062582;28;20175;-60
2021/09/22 06:13:52;;;;;;;38.97;24.83;;;;;;;11.52;84.97;103049.13;5063334;28;20033;-60
2021/09/22 06:16:18;;;;;;;43.95;25.63;;;;;;;11.57;85.00;103045.75;5062903;28;20116;-59
2021/09/22 06:18:43;;;;;;;39.38;24.98;;;;;;;11.60;85.33;103048.47;5060492;28;20037;-59
2021/09/22 06:21:09;;;;;;;39.90;23.42;;;;;;;11.62;84.93;103046.78;5062995;28;20263;-59
2021/09/22 06:23:34;;;;;;;39.28;24.67;;;;;;;11.67;85.25;103037.28;5064958;28;20037;-59
2021/09/22 06:26:00;;;;;;;43.97;25.73;;;;;;;11.70;85.29;103034.72;5062431;28;20067;-59
2021/09/22 06:28:25;;;;;;;42.97;27.77;;;;;;;11.74;85.45;103047.16;5063005;28;20417;-59
2021/09/22 06:30:51;;;;;;;41.45;26.08;;;;;;;11.78;85.58;103043.75;5062702;28;20029;-59
2021/09/22 06:33:16;;;;;;;41.53;25.95;;;;;;;11.85;85.58;103050.06;5062998;28;20040;-60
2021/09/22 06:35:43;;;;;;;42.60;26.00;;;;;;;11.91;85.38;103055.56;5062720;28;20062;-59
2021/09/22 06:38:08;;;;;;;36.60;25.50;;;;;;;11.97;85.00;103061.00;5062165;28;20075;-59
2021/09/22 06:40:34;;;;;;;40.85;27.50;;;;;;;12.03;85.32;103055.88;5059851;28;20025;-60
2021/09/22 06:43:01;;;;;;;48.47;28.13;;;;;;;12.12;85.33;103060.53;5048337;28;20043;-60
2021/09/22 06:45:26;;;;;;;41.00;26.13;;;;;;;12.21;85.04;103055.50;5063022;28;20029;-60
2021/09/22 06:47:52;;;;;;;40.75;24.90;;;;;;;12.33;84.63;103047.03;5062948;28;20421;-57
2021/09/22 06:50:17;;;;;;;40.40;25.60;;;;;;;12.48;84.31;103055.34;5062939;28;20033;-59
2021/09/22 06:52:43;;;;;;;39.80;26.15;;;;;;;12.65;83.86;103050.47;5060674;28;20052;-59
2021/09/22 06:55:10;;;;;;;42.97;27.58;;;;;;;12.81;83.61;103049.09;5061687;28;20040;-59
2021/09/22 06:57:36;;;;;;;38.85;26.67;;;;;;;12.97;83.17;103045.09;5062276;28;20032;-59
2021/09/22 07:00:01;;;;;;;43.83;26.75;;;;;;;13.15;82.81;103051.66;5062256;28;20088;-59
2021/09/22 07:02:26;;;;;;;47.08;26.48;;;;;;;13.33;82.40;103048.59;5059545;28;20037;-60
2021/09/22 07:04:52;;;;;;;39.45;24.90;;;;;;;13.51;81.79;103045.44;5061525;28;20060;-60
2021/09/22 07:07:17;;;;;;;38.88;24.77;;;;;;;13.66;81.71;103053.69;5062412;28;20041;-58
2021/09/22 07:09:42;;;;;;;39.25;25.45;;;;;;;13.78;80.85;103055.66;5059884;28;20087;-58
2021/09/22 07:12:08;;;;;;;31.80;21.70;;;;;;;13.91;80.62;103059.47;5060281;28;20037;-59
2021/09/22 07:14:33;;;;;;;34.42;22.75;;;;;;;14.03;79.73;103065.00;5059940;28;20664;-60
2021/09/22 07:16:59;;;;;;;38.60;23.80;;;;;;;14.15;79.00;103062.56;5061755;28;20067;-59
2021/09/22 07:19:24;;;;;;;33.90;22.13;;;;;;;14.28;79.25;103069.00;5059611;28;20092;-59
2021/09/22 07:21:49;;;;;;;32.35;21.88;;;;;;;14.37;78.69;103071.81;5058229;28;20053;-59
2021/09/22 07:24:15;;;;;;;32.03;22.25;;;;;;;14.44;77.78;103062.22;5058824;28;20045;-59
2021/09/22 07:26:41;;;;;;;36.08;21.38;;;;;;;14.53;78.26;103066.78;5061699;28;20052;-60
2021/09/22 07:29:07;;;;;;;33.38;22.13;;;;;;;14.63;78.49;103066.13;5062073;28;20037;-59
2021/09/22 07:31:34;;;;;;;28.85;20.00;;;;;;;14.74;77.77;103067.16;5059298;28;20044;-59
2021/09/22 07:33:59;;;;;;;35.80;21.48;;;;;;;14.89;76.63;103049.75;5062743;28;20055;-60
2021/09/22 07:36:25;;;;;;;32.00;20.77;;;;;;;14.99;76.70;103055.22;5061766;28;20037;-60
2021/09/22 07:38:50;;;;;;;34.05;20.77;;;;;;;15.12;75.77;103056.31;5061658;28;20575;-59
2021/09/22 07:41:16;;;;;;;37.30;21.48;;;;;;;15.27;75.43;103049.44;5060735;28;20120;-59
2021/09/22 07:43:41;;;;;;;31.00;20.98;;;;;;;15.39;74.97;103052.25;5059570;28;20025;-59
2021/09/22 07:46:07;;;;;;;29.20;20.23;;;;;;;15.53;74.91;103060.38;5061783;28;20021;-61
2021/09/22 07:48:34;;;;;;;27.20;18.98;;;;;;;15.66;75.16;103054.38;5059662;28;20041;-59
2021/09/22 07:50:59;;;;;;;31.60;19.15;;;;;;;15.79;73.96;103052.78;5059528;28;20056;-59
2021/09/22 07:53:24;;;;;;;29.77;19.23;;;;;;;15.90;73.75;103055.59;5068150;28;20040;-59
2021/09/22 07:55:50;;;;;;;29.30;19.70;;;;;;;16.03;73.54;103051.28;5065976;28;20455;-59
2021/09/22 07:58:18;;;;;;;30.05;18.58;;;;;;;16.08;72.46;103046.91;5065964;28;20049;-59
2021/09/22 08:00:43;;;;;;;27.13;17.88;;;;;;;16.16;73.01;103045.22;5064846;28;20074;-59
2021/09/22 08:03:09;;;;;;;30.25;18.40;;;;;;;16.25;73.18;103036.47;5064831;28;20562;-60
2021/09/22 08:05:38;;;;;;;27.67;18.23;;;;;;;16.32;72.37;103039.22;5061059;28;20564;-59
2021/09/22 08:08:04;;;;;;;;;;;;;;;16.44;71.85;103037.53;5065175;28;20060;-59
2021/09/22 08:10:29;;;;;;;26.23;17.85;;;;;;;16.50;71.46;103038.50;5063545;28;19932;-59
2021/09/22 08:12:56;;;;;;;23.17;16.50;;;;;;;16.55;71.23;103036.75;5064775;28;20120;-60
2021/09/22 08:15:21;;;;;;;30.70;17.15;;;;;;;16.62;71.46;103029.75;5062981;28;20025;-60
2021/09/22 08:17:47;;;;;;;25.80;17.17;;;;;;;16.66;71.32;103031.53;5064793;28;20029;-59
2021/09/22 08:20:15;;;;;;;27.08;16.77;;;;;;;16.71;71.19;103035.13;5065347;28;20044;-60
2021/09/22 08:22:40;;;;;;;25.73;16.55;;;;;;;16.75;70.83;103039.56;5065675;28;20036;-60
2021/09/22 08:25:07;;;;;;;26.27;15.95;;;;;;;16.81;70.98;103029.88;5063959;28;20025;-60
2021/09/22 08:27:32;;;;;;;23.67;15.18;;;;;;;16.86;70.73;103026.41;5063486;28;20037;-60
2021/09/22 08:29:57;;;;;;;26.08;15.77;;;;;;;16.91;70.81;103029.97;5065744;28;20094;-60
2021/09/22 08:32:23;;;;;;;25.27;15.43;;;;;;;17.01;70.72;103030.91;5064874;28;20033;-60
2021/09/22 08:34:48;;;;;;;23.17;15.50;;;;;;;17.10;70.80;103028.31;5059227;28;20047;-60
2021/09/22 08:37:14;;;;;;;21.95;14.30;;;;;;;17.21;70.15;103033.69;5064528;28;20045;-61
2021/09/22 08:39:39;;;;;;;21.48;14.32;;;;;;;17.30;69.73;103035.53;5063169;28;20064;-59
2021/09/22 08:42:05;;;;;;;18.40;13.07;;;;;;;17.39;69.26;103037.31;5062450;28;20037;-59
2021/09/22 08:44:32;;;;;;;21.20;13.70;;;;;;;17.47;69.61;103033.84;5065471;28;20025;-60
2021/09/22 08:46:58;;;;;;;22.25;14.13;;;;;;;17.50;69.17;103035.59;5063899;28;20210;-59
2021/09/22 08:49:24;;;;;;;22.10;14.15;;;;;;;17.52;68.32;103032.09;5063592;28;20105;-60
2021/09/22 08:51:50;;;;;;;24.13;15.27;;;;;;;17.58;69.30;103031.22;5055016;28;20036;-60
2021/09/22 08:54:16;;;;;;;24.23;13.93;;;;;;;17.60;68.36;103032.13;5064177;28;20037;-59
2021/09/22 08:56:43;;;;;;;20.45;13.40;;;;;;;17.65;68.84;103033.00;5064046;28;20033;-58
2021/09/22 08:59:10;;;;;;;18.58;13.55;;;;;;;17.71;68.45;103034.78;5062714;28;20400;-59
2021/09/22 09:01:36;;;;;;;18.98;12.18;;;;;;;17.81;68.42;103038.41;5063510;28;20083;-59
2021/09/22 09:04:17;;;;;;;17.77;11.52;;;;;;;18.01;67.64;103043.78;5063792;28;20358;-59
2021/09/22 09:06:43;;;;;;;23.90;13.32;;;;;;;18.07;67.45;103044.69;5063493;28;20096;-59
2021/09/22 09:09:09;;;;;;;18.50;12.65;;;;;;;18.11;67.45;103043.81;5063301;28;20377;-61
2021/09/22 09:11:37;;;;;;;17.50;11.85;;;;;;;18.12;67.16;103044.69;5063334;28;20025;-60
2021/09/22 09:14:06;;;;;;;18.98;12.57;;;;;;;18.08;67.33;103041.13;5061156;28;20090;-59
2021/09/22 09:16:49;;;;;;;20.53;11.87;;;;;;;18.12;66.88;103034.06;5063866;28;20025;-59
2021/09/22 09:19:22;;;;;;;19.83;11.15;;;;;;;18.08;66.73;103043.78;5063635;28;20127;-61
2021/09/22 09:22:02;;;;;;;18.70;12.77;;;;;;;18.00;66.49;103040.25;5065162;28;20033;-60
2021/09/22 09:24:36;;;;;;;22.23;12.80;;;;;;;17.98;67.15;103043.78;5061100;28;20124;-61
2021/09/22 09:27:22;;;;;;;17.75;11.40;;;;;;;18.00;67.63;103036.72;5061591;28;20080;-60
2021/09/22 09:29:51;;;;;;;14.30;9.15;;;;;;;18.11;67.58;103030.50;5064787;28;20036;-60
2021/09/22 09:32:22;;;;;;;14.55;9.77;;;;;;;18.23;67.25;103021.66;5062715;28;20063;-59
2021/09/22 09:35:12;;;;;;;15.73;11.02;;;;;;;18.22;66.79;103021.63;5063991;28;20065;-60
2021/09/22 09:37:40;;;;;;;21.73;12.13;;;;;;;18.17;66.10;103019.00;5063737;28;20033;-60
2021/09/22 09:40:24;;;;;;;19.63;11.07;;;;;;;18.30;66.38;103023.44;5061533;28;20082;-59
2021/09/22 09:42:54;;;;;;;16.95;10.73;;;;;;;18.27;65.99;103015.44;5063074;28;20506;-61
2021/09/22 09:45:21;;;;;;;18.20;10.80;;;;;;;18.33;66.77;103027.84;5064067;28;20017;-60
2021/09/22 09:48:03;;;;;;;14.05;9.18;;;;;;;18.56;65.35;103011.00;5061363;28;20048;-60
2021/09/22 09:50:30;;;;;;;19.77;11.15;;;;;;;18.65;64.45;103011.00;5064364;28;20073;-59
2021/09/22 09:53:00;;;;;;;18.30;11.18;;;;;;;18.72;64.76;103010.09;5063184;28;20033;-59
2021/09/22 09:55:26;;;;;;;16.70;10.95;;;;;;;18.79;65.57;103016.31;5063237;28;20111;-60
2021/09/22 09:57:54;;;;;;;17.50;10.15;;;;;;;18.94;64.29;103010.09;5062500;28;20032;-60
2021/09/22 10:00:44;;;;;;;18.05;10.70;;;;;;;19.00;64.28;103012.78;5064036;28;20033;-60
2021/09/22 10:03:21;;;;;;;15.70;9.10;;;;;;;19.01;63.84;103011.84;5060077;28;20053;-59
2021/09/22 10:05:48;;;;;;;16.73;8.15;;;;;;;19.11;62.81;103015.38;5063161;28;20032;-59
2021/09/22 10:08:15;;;;;;;13.57;8.65;;;;;;;19.09;62.58;103016.28;5059206;28;20044;-60
2021/09/22 10:10:48;;;;;;;14.23;8.38;;;;;;;19.11;62.49;103010.97;5062409;28;20043;-60
2021/09/22 10:13:16;;;;;;;16.00;8.80;;;;;;;19.18;62.43;103017.13;5063101;28;20096;-61
2021/09/22 10:15:43;;;;;;;12.88;8.35;;;;;;;19.18;62.46;103014.47;5065819;28;20136;-60
2021/09/22 10:18:10;;;;;;;12.63;8.00;;;;;;;19.13;62.22;103010.94;5062871;28;20025;-60
2021/09/22 10:20:43;;;;;;;14.25;8.27;;;;;;;19.01;62.26;103011.84;5060819;28;20044;-60
2021/09/22 10:23:10;;;;;;;10.52;7.82;;;;;;;19.06;62.32;103013.63;5059119;28;20565;-60
2021/09/22 10:25:39;;;;;;;11.55;8.18;;;;;;;19.15;61.77;103014.47;5062621;28;20045;-61
2021/09/22 10:28:05;;;;;;;11.88;7.68;;;;;;;19.12;61.89;103004.72;5062607;28;20041;-60
2021/09/22 10:30:37;;;;;;;13.30;7.63;;;;;;;19.01;61.83;103007.41;5060981;28;20056;-58
2021/09/22 10:33:04;;;;;;;12.40;7.88;;;;;;;18.86;61.48;103007.44;5060371;28;20051;-59
2021/09/22 10:35:35;;;;;;;11.05;6.38;;;;;;;18.86;61.94;102997.66;5060929;28;20120;-59
2021/09/22 10:38:20;;;;;;;11.48;7.35;;;;;;;18.94;61.02;102995.03;5060068;28;20028;-60
2021/09/22 10:40:53;;;;;;;13.00;8.02;;;;;;;18.76;62.79;102995.03;5066123;28;20041;-60
2021/09/22 10:43:26;;;;;;;11.43;7.90;;;;;;;18.73;63.47;102993.22;5052243;28;20056;-60
2021/09/22 10:46:07;;;;;;;13.43;8.13;;;;;;;18.68;63.04;102989.72;5061508;28;20076;-60
2021/09/22 10:48:51;;;;;;;13.35;8.25;;;;;;;18.66;63.21;102995.03;5062281;28;20032;-60
2021/09/22 10:51:42;;;;;;;16.02;7.65;;;;;;;18.58;64.56;102988.84;5060628;28;20028;-60
2021/09/22 10:54:15;;;;;;;8.57;7.13;;;;;;;18.58;64.02;102982.59;5060343;28;20021;-60
2021/09/22 10:57:01;;;;;;;14.75;7.53;;;;;;;18.60;63.68;102980.81;5062521;28;20787;-62
2021/09/22 10:59:31;;;;;;;12.75;7.70;;;;;;;18.64;63.79;102971.97;5058521;28;20464;-62
2021/09/22 11:01:58;;;;;;;14.68;7.68;;;;;;;18.69;63.57;102971.06;5060437;28;20025;-62
2021/09/22 11:04:24;;;;;;;10.45;7.03;;;;;;;18.73;62.88;102968.38;5059312;28;20017;-61
2021/09/22 11:06:51;;;;;;;17.45;7.68;;;;;;;18.83;63.10;102963.06;5056725;28;20045;-62
2021/09/22 11:09:16;;;;;;;10.57;6.05;;;;;;;18.90;62.92;102963.94;5060265;28;20096;-61